Terminal Aerodrome Forecast
Issued by NWS Lake Charles, LA

Home | Current Version | Previous Version | Text Only | Print | Product List | Glossary On
Versions: 1 2 3 4 5 6 7 8 9 10 11 12 13 14 15 16
000
FTUS44 KLCH 181100
TAFLFT
TAF
KLFT 181120Z 1812/1912 09004KT P6SM VCSH SCT025 BKN120
     FM181500 12004KT P6SM VCSH SCT015 OVC025
     FM181800 14006KT P6SM VCSH OVC015
      TEMPO 1820/1824 2SM -RA BR OVC007
     FM190000 05004KT P6SM VCSH OVC007 PROB30 1903/1909 2SM -RA BR
     FM190900 08005KT 2SM -RA BR VCTS OVC007CB=

USA.gov is the U.S. government's official web portal to all federal, state and local government web resources and services.